Time;durP1;ratioP1;P1;durP2;ratioP2;P2;SDS_P1;SDS_P2;PMS_P1;PMS_P2;Temp;Humidity;BMP_temperature;BMP_pressure;BME280_temperature;BME280_humidity;BME280_pressure;Samples;Min_cycle;Max_cycle;Signal;HPM_P1;HPM_P2
2021/06/15 00:00:59;;;;;;;5.67;3.10;;;18.00;99.90;;;;;;4188123;28;20267;-73
2021/06/15 00:03:00;;;;;;;6.37;3.63;;;17.90;99.90;;;;;;4189803;28;20576;-73
2021/06/15 00:05:02;;;;;;;4.33;3.03;;;17.90;99.90;;;;;;4197115;28;20255;-73
2021/06/15 00:07:06;;;;;;;6.03;2.83;;;17.90;99.90;;;;;;4196461;28;20217;-73
2021/06/15 00:09:07;;;;;;;4.83;3.20;;;17.90;99.90;;;;;;4195586;28;20706;-73
2021/06/15 00:11:09;;;;;;;6.57;3.33;;;17.80;99.90;;;;;;4191900;28;20263;-73
2021/06/15 00:13:12;;;;;;;5.17;3.20;;;17.90;99.90;;;;;;4195317;28;20206;-73
2021/06/15 00:15:15;;;;;;;5.95;3.50;;;17.80;99.90;;;;;;4197963;28;20457;-73
2021/06/15 00:17:16;;;;;;;5.90;3.23;;;17.80;99.90;;;;;;4191575;28;20233;-73
2021/06/15 00:19:18;;;;;;;6.83;3.57;;;17.70;99.90;;;;;;4188315;28;20206;-73
2021/06/15 00:21:20;;;;;;;6.17;3.37;;;17.70;99.90;;;;;;4196654;28;20266;-73
2021/06/15 00:23:23;;;;;;;7.03;3.60;;;17.70;99.90;;;;;;4195681;28;20216;-73
2021/06/15 00:25:25;;;;;;;7.17;3.50;;;17.70;99.90;;;;;;4191829;28;20232;-73
2021/06/15 00:27:29;;;;;;;5.87;3.50;;;17.60;99.90;;;;;;4180420;28;20210;-73
2021/06/15 00:29:31;;;;;;;7.27;3.63;;;17.60;99.90;;;;;;4185830;28;20240;-73
2021/06/15 00:31:34;;;;;;;7.40;3.60;;;17.60;99.90;;;;;;4197101;28;20282;-73
2021/06/15 00:33:36;;;;;;;6.13;3.60;;;17.50;99.90;;;;;;4195542;28;20205;-72
2021/06/15 00:35:38;;;;;;;6.90;3.80;;;17.50;99.90;;;;;;4187764;28;20230;-73
2021/06/15 00:37:39;;;;;;;7.53;4.13;;;17.50;99.90;;;;;;4196031;28;20229;-73
2021/06/15 00:39:43;;;;;;;5.40;3.50;;;17.50;99.90;;;;;;4194050;28;20267;-73
2021/06/15 00:41:44;;;;;;;5.83;3.27;;;17.40;99.90;;;;;;4194957;28;20630;-73
2021/06/15 00:43:46;;;;;;;7.67;3.40;;;17.40;99.90;;;;;;4191168;28;20214;-73
2021/06/15 00:45:48;;;;;;;5.93;3.10;;;17.40;99.90;;;;;;4187663;28;20201;-73
2021/06/15 00:47:50;;;;;;;7.33;3.87;;;17.30;99.90;;;;;;4193417;28;20482;-72
2021/06/15 00:49:54;;;;;;;5.40;3.20;;;17.30;99.90;;;;;;4188852;28;20264;-73
2021/06/15 00:51:56;;;;;;;5.60;3.50;;;17.30;99.90;;;;;;4183399;28;20261;-72
2021/06/15 00:53:58;;;;;;;5.00;3.47;;;17.30;99.90;;;;;;4180659;28;20210;-73
2021/06/15 00:56:01;;;;;;;5.67;3.50;;;17.20;99.90;;;;;;4179692;28;20237;-73
2021/06/15 00:58:03;;;;;;;5.73;3.63;;;17.20;99.90;;;;;;4181587;28;20230;-73
2021/06/15 01:00:07;;;;;;;6.27;3.40;;;17.20;99.90;;;;;;4192023;28;20267;-73
2021/06/15 01:02:09;;;;;;;7.93;3.37;;;17.10;99.90;;;;;;4195621;28;20762;-73
2021/06/15 01:04:12;;;;;;;5.83;3.30;;;17.10;99.90;;;;;;4193753;28;20212;-73
2021/06/15 01:06:17;;;;;;;6.87;3.93;;;17.10;99.90;;;;;;4194352;28;20209;-72
2021/06/15 01:08:35;;;;;;;5.83;3.53;;;17.10;99.90;;;;;;4195216;28;20602;-73
2021/06/15 01:10:43;;;;;;;6.23;3.90;;;17.00;99.90;;;;;;4195654;28;20204;-72
2021/06/15 01:12:55;;;;;;;7.43;3.67;;;17.00;99.90;;;;;;4194823;28;20260;-73
2021/06/15 01:15:06;;;;;;;12.43;3.90;;;17.00;99.90;;;;;;4181017;28;20220;-73
2021/06/15 01:17:12;;;;;;;5.90;3.63;;;17.00;99.90;;;;;;4189657;28;20262;-72
2021/06/15 01:19:29;;;;;;;6.00;3.90;;;17.00;99.90;;;;;;4189115;28;20240;-72
2021/06/15 01:21:32;;;;;;;6.50;3.87;;;16.90;99.90;;;;;;4179416;28;20625;-72
2021/06/15 01:23:55;;;;;;;6.07;3.70;;;16.90;99.90;;;;;;4179621;28;20267;-73
2021/06/15 01:26:10;;;;;;;5.10;3.50;;;16.80;99.90;;;;;;4195008;28;20201;-72
2021/06/15 01:28:16;;;;;;;5.60;3.57;;;16.80;99.90;;;;;;4184539;28;20610;-73
2021/06/15 01:30:21;;;;;;;7.67;3.90;;;16.80;99.90;;;;;;4179226;28;20696;-73
2021/06/15 01:32:28;;;;;;;6.03;3.60;;;16.70;99.90;;;;;;4193711;28;20814;-73
2021/06/15 01:34:32;;;;;;;5.97;4.10;;;16.70;99.90;;;;;;4195071;28;20427;-73
2021/06/15 01:36:38;;;;;;;6.20;3.70;;;16.70;99.90;;;;;;4188270;28;20223;-73
2021/06/15 01:38:47;;;;;;;8.57;3.93;;;16.70;99.90;;;;;;4183095;28;20255;-73
2021/06/15 01:40:55;;;;;;;5.00;3.60;;;16.70;99.90;;;;;;4186012;28;20197;-73
2021/06/15 01:43:02;;;;;;;6.73;4.27;;;16.60;99.90;;;;;;4183259;28;20246;-73
2021/06/15 01:45:08;;;;;;;6.10;3.40;;;16.50;99.90;;;;;;4184752;28;20702;-73
2021/06/15 01:47:13;;;;;;;6.70;3.97;;;16.50;99.90;;;;;;4179596;28;20484;-73
2021/06/15 01:49:19;;;;;;;9.30;4.37;;;16.50;99.90;;;;;;4195103;28;20277;-73
2021/06/15 01:51:22;;;;;;;7.57;4.20;;;16.50;99.90;;;;;;4193288;28;20640;-73
2021/06/15 01:53:25;;;;;;;7.83;4.30;;;16.50;99.90;;;;;;4194895;28;20284;-72
2021/06/15 01:55:28;;;;;;;7.03;4.50;;;16.50;99.90;;;;;;4186802;28;20249;-72
2021/06/15 01:57:31;;;;;;;7.13;4.43;;;16.40;99.90;;;;;;4181323;28;20229;-72
2021/06/15 01:59:35;;;;;;;6.70;4.47;;;16.40;99.90;;;;;;4179405;28;20259;-73
2021/06/15 02:01:43;;;;;;;8.53;4.50;;;16.40;99.90;;;;;;4180617;28;20230;-72
2021/06/15 02:03:47;;;;;;;8.70;5.13;;;16.40;99.90;;;;;;4189047;28;20209;-73
2021/06/15 02:05:52;;;;;;;8.83;5.00;;;16.30;99.90;;;;;;4186934;28;20298;-73
2021/06/15 02:07:55;;;;;;;7.77;4.70;;;16.30;99.90;;;;;;4193172;28;20239;-73
2021/06/15 02:10:02;;;;;;;10.30;5.77;;;16.30;99.90;;;;;;4196195;28;20664;-73
2021/06/15 02:12:04;;;;;;;8.43;5.20;;;16.30;99.90;;;;;;4190758;28;20235;-72
2021/06/15 02:14:16;;;;;;;8.47;5.10;;;16.20;99.90;;;;;;4196303;28;20729;-73
2021/06/15 02:16:19;;;;;;;11.60;5.00;;;16.20;99.90;;;;;;4189427;28;20315;-73
2021/06/15 02:18:23;;;;;;;7.87;4.67;;;16.20;99.90;;;;;;4193746;28;20235;-72
2021/06/15 02:20:30;;;;;;;7.67;4.60;;;16.20;99.90;;;;;;4192442;28;20215;-72
2021/06/15 02:22:33;;;;;;;9.37;5.50;;;16.20;99.90;;;;;;4198976;28;20257;-72
2021/06/15 02:24:40;;;;;;;7.30;4.80;;;16.20;99.90;;;;;;4197340;28;20214;-72
2021/06/15 02:26:45;;;;;;;7.50;4.27;;;16.10;99.90;;;;;;4190259;28;20622;-72
2021/06/15 02:28:46;;;;;;;9.33;4.80;;;16.10;99.90;;;;;;4183621;28;20287;-72
2021/06/15 02:30:48;;;;;;;7.17;4.33;;;16.10;99.90;;;;;;4198504;28;20204;-72
2021/06/15 02:32:51;;;;;;;9.20;4.33;;;16.10;99.90;;;;;;4198656;28;20251;-72
2021/06/15 02:34:57;;;;;;;7.60;4.40;;;16.00;99.90;;;;;;4197734;28;20264;-71
2021/06/15 02:36:59;;;;;;;8.77;4.60;;;16.00;99.90;;;;;;4193177;28;20220;-71
2021/06/15 02:39:06;;;;;;;6.70;4.37;;;16.00;99.90;;;;;;4181646;28;20243;-71
2021/06/15 02:41:10;;;;;;;8.17;4.10;;;16.00;99.90;;;;;;4191530;28;20673;-72
2021/06/15 02:43:13;;;;;;;8.03;4.60;;;15.90;99.90;;;;;;4199128;28;20260;-72
2021/06/15 02:45:18;;;;;;;6.67;4.20;;;15.90;99.90;;;;;;4197548;28;20220;-71
2021/06/15 02:47:20;;;;;;;7.10;4.37;;;15.90;99.90;;;;;;4192143;28;20456;-72
2021/06/15 02:49:26;;;;;;;6.97;3.87;;;15.90;99.90;;;;;;4187972;28;20265;-72
2021/06/15 02:51:34;;;;;;;9.03;4.23;;;15.90;99.90;;;;;;4197287;28;20234;-72
2021/06/15 02:53:40;;;;;;;8.93;4.53;;;15.80;99.90;;;;;;4199244;28;20241;-72
2021/06/15 02:55:48;;;;;;;8.37;4.20;;;15.80;99.90;;;;;;4198570;28;20198;-72
2021/06/15 02:57:50;;;;;;;7.80;4.30;;;15.80;99.90;;;;;;4188832;28;20329;-72
2021/06/15 02:59:53;;;;;;;8.53;4.80;;;15.80;99.90;;;;;;4196060;28;20667;-72
2021/06/15 03:01:55;;;;;;;8.73;4.60;;;15.80;99.90;;;;;;4196034;28;20251;-72
2021/06/15 03:03:57;;;;;;;6.87;4.70;;;15.80;99.90;;;;;;4188337;28;20203;-72
2021/06/15 03:05:58;;;;;;;7.83;4.40;;;15.80;99.90;;;;;;4183574;28;20215;-72
2021/06/15 03:08:02;;;;;;;6.93;4.50;;;15.70;99.90;;;;;;4211946;22;20231;-77
2021/06/15 03:10:06;;;;;;;6.50;3.77;;;15.70;99.90;;;;;;4180453;28;20202;-77
2021/06/15 03:12:13;;;;;;;8.03;4.30;;;15.70;99.90;;;;;;4181180;28;20219;-74
2021/06/15 03:14:18;;;;;;;9.93;4.93;;;15.60;99.90;;;;;;4181152;28;20221;-75
2021/06/15 03:16:24;;;;;;;9.37;4.60;;;15.60;99.90;;;;;;4172091;28;20204;-74
2021/06/15 03:18:29;;;;;;;8.97;4.10;;;15.60;99.90;;;;;;4177062;28;20243;-74
2021/06/15 03:20:31;;;;;;;6.87;4.70;;;15.60;99.90;;;;;;4180433;28;20834;-74
2021/06/15 03:22:46;;;;;;;7.83;4.90;;;15.60;99.90;;;;;;4182668;28;20577;-77
2021/06/15 03:24:55;;;;;;;6.57;4.40;;;15.60;99.90;;;;;;4177194;28;20210;-74
2021/06/15 03:27:02;;;;;;;8.20;4.40;;;15.60;99.90;;;;;;4180812;28;20579;-74
2021/06/15 03:29:04;;;;;;;8.83;4.67;;;15.50;99.90;;;;;;4179835;28;20765;-74
2021/06/15 03:31:06;;;;;;;8.20;4.83;;;15.50;99.90;;;;;;4182038;28;20206;-75
2021/06/15 03:33:09;;;;;;;7.73;4.77;;;15.60;99.90;;;;;;4166383;28;20211;-75
2021/06/15 03:35:13;;;;;;;9.17;4.87;;;15.50;99.90;;;;;;4169316;28;20203;-75
2021/06/15 03:37:19;;;;;;;8.03;4.70;;;15.50;99.90;;;;;;4173578;28;20218;-75
2021/06/15 03:39:23;;;;;;;8.90;5.13;;;15.50;99.90;;;;;;4176923;28;20234;-74
2021/06/15 03:41:28;;;;;;;8.07;4.70;;;15.60;99.90;;;;;;4175604;28;20678;-76
2021/06/15 03:43:32;;;;;;;8.77;4.63;;;15.50;99.90;;;;;;4167557;28;20211;-76
2021/06/15 03:45:39;;;;;;;6.17;4.43;;;15.50;99.90;;;;;;4177243;28;20608;-74
2021/06/15 03:47:43;;;;;;;8.20;4.57;;;15.50;99.90;;;;;;4176235;28;20210;-74
2021/06/15 03:49:47;;;;;;;7.97;4.13;;;15.50;99.90;;;;;;4176526;28;20206;-75
2021/06/15 03:51:53;;;;;;;7.90;4.50;;;15.50;99.90;;;;;;4177363;28;20202;-74
2021/06/15 03:54:06;;;;;;;8.60;4.87;;;15.50;99.90;;;;;;4181278;28;20199;-76
2021/06/15 03:56:09;;;;;;;7.77;5.07;;;15.50;99.90;;;;;;4181188;28;20236;-76
2021/06/15 03:58:14;;;;;;;10.20;4.40;;;15.50;99.90;;;;;;4166457;28;20753;-77
2021/06/15 04:00:18;;;;;;;10.10;5.17;;;15.50;99.90;;;;;;4173568;28;20207;-76
2021/06/15 04:02:21;;;;;;;10.73;4.83;;;15.50;99.90;;;;;;4181549;28;20668;-77
2021/06/15 04:04:24;;;;;;;9.27;4.80;;;15.50;99.90;;;;;;4180477;28;20733;-76
2021/06/15 04:06:26;;;;;;;6.80;4.40;;;15.60;99.90;;;;;;4176787;28;20209;-76
2021/06/15 04:08:28;;;;;;;6.90;4.57;;;15.60;99.90;;;;;;4176555;28;20228;-74
2021/06/15 04:10:31;;;;;;;6.47;4.27;;;15.60;99.90;;;;;;4172473;28;20212;-74
2021/06/15 04:12:32;;;;;;;6.20;4.40;;;15.60;99.90;;;;;;4166428;28;20216;-74
2021/06/15 04:14:37;;;;;;;5.90;4.37;;;15.60;99.90;;;;;;4178398;28;20223;-75
2021/06/15 04:16:39;;;;;;;6.93;4.83;;;15.60;99.90;;;;;;4178217;28;20305;-75
2021/06/15 04:18:45;;;;;;;6.93;4.70;;;15.60;99.90;;;;;;4180531;28;20313;-76
2021/06/15 04:20:51;;;;;;;9.80;5.17;;;15.60;99.90;;;;;;4175539;28;20251;-77
2021/06/15 04:22:54;;;;;;;7.30;5.00;;;15.60;99.90;;;;;;4181003;28;20269;-76
2021/06/15 04:24:57;;;;;;;9.10;4.70;;;15.60;99.90;;;;;;4172217;28;20246;-74
2021/06/15 04:27:00;;;;;;;8.73;4.90;;;15.60;99.90;;;;;;4177227;28;20588;-77
2021/06/15 04:29:02;;;;;;;6.93;4.50;;;15.60;99.90;;;;;;4171702;28;20640;-74
2021/06/15 04:31:06;;;;;;;7.47;4.40;;;15.60;99.90;;;;;;4175832;28;20207;-74
2021/06/15 04:33:10;;;;;;;10.33;4.40;;;15.70;99.90;;;;;;4176311;28;20212;-74
2021/06/15 04:35:13;;;;;;;7.80;5.07;;;15.70;99.90;;;;;;4172404;28;20208;-76
2021/06/15 04:37:16;;;;;;;7.93;5.17;;;15.70;99.90;;;;;;4175343;28;20216;-77
2021/06/15 04:39:21;;;;;;;7.83;4.40;;;15.70;99.90;;;;;;4180151;28;20702;-76
2021/06/15 04:41:29;;;;;;;7.73;4.90;;;15.80;99.90;;;;;;4180096;28;20248;-76
2021/06/15 04:43:37;;;;;;;9.33;4.90;;;15.80;99.90;;;;;;4172100;28;20680;-75
2021/06/15 04:45:44;;;;;;;9.10;5.53;;;15.80;99.90;;;;;;4167646;28;20677;-75
2021/06/15 04:47:52;;;;;;;13.37;5.73;;;15.80;99.90;;;;;;4171463;28;20222;-74
2021/06/15 04:49:58;;;;;;;8.80;5.13;;;15.80;99.90;;;;;;4175015;28;20289;-74
2021/06/15 04:52:01;;;;;;;8.33;5.07;;;15.90;99.90;;;;;;4178272;28;20253;-74
2021/06/15 04:54:05;;;;;;;8.07;4.70;;;15.90;99.90;;;;;;4180209;28;20220;-75
2021/06/15 04:56:08;;;;;;;8.33;4.93;;;15.90;99.90;;;;;;4179306;28;20203;-74
2021/06/15 04:58:13;;;;;;;7.90;5.00;;;16.00;99.90;;;;;;4179528;28;20602;-75
2021/06/15 05:00:16;;;;;;;7.33;4.83;;;16.00;99.90;;;;;;4164451;28;20264;-76
2021/06/15 05:02:20;;;;;;;7.90;4.77;;;16.00;99.90;;;;;;4178418;28;20260;-75
2021/06/15 05:04:23;;;;;;;10.47;5.20;;;16.10;99.90;;;;;;4163207;28;20212;-75
2021/06/15 05:06:26;;;;;;;7.57;4.93;;;16.10;99.90;;;;;;4171920;28;20281;-74
2021/06/15 05:08:29;;;;;;;6.67;4.73;;;16.10;99.90;;;;;;4169531;28;20242;-75
2021/06/15 05:10:33;;;;;;;11.60;5.40;;;16.20;99.90;;;;;;4176251;28;20225;-74
2021/06/15 05:12:38;;;;;;;7.80;5.03;;;16.20;99.90;;;;;;4177644;28;20659;-74
2021/06/15 05:14:44;;;;;;;11.23;6.03;;;16.30;99.90;;;;;;4176347;28;20215;-74
2021/06/15 05:16:46;;;;;;;8.90;5.57;;;16.30;99.90;;;;;;4173633;28;20217;-74
2021/06/15 05:18:48;;;;;;;10.07;5.87;;;16.40;99.90;;;;;;4176752;28;20229;-74
2021/06/15 05:20:51;;;;;;;10.03;5.87;;;16.40;99.90;;;;;;4163974;28;20221;-74
2021/06/15 05:23:00;;;;;;;8.60;5.27;;;16.50;99.90;;;;;;4179598;28;20207;-74
2021/06/15 05:25:03;;;;;;;11.20;5.70;;;16.50;99.90;;;;;;4179519;28;20665;-74
2021/06/15 05:27:06;;;;;;;9.53;5.07;;;16.60;99.90;;;;;;4172703;28;20209;-75
2021/06/15 05:29:07;;;;;;;10.20;6.07;;;16.60;99.90;;;;;;4179347;28;20701;-76
2021/06/15 05:31:09;;;;;;;9.97;5.43;;;16.70;99.90;;;;;;4179375;28;20347;-75
2021/06/15 05:33:11;;;;;;;9.80;5.30;;;16.70;99.90;;;;;;4174544;28;20205;-75
2021/06/15 05:35:13;;;;;;;11.00;5.33;;;16.80;99.90;;;;;;4174206;28;20271;-74
2021/06/15 05:37:18;;;;;;;10.90;5.77;;;16.80;99.90;;;;;;4178528;28;20207;-76
2021/06/15 05:39:20;;;;;;;9.40;5.57;;;16.90;99.90;;;;;;4179152;28;20224;-77
2021/06/15 05:41:21;;;;;;;7.57;5.17;;;17.00;99.90;;;;;;4172994;28;20254;-74
2021/06/15 05:43:23;;;;;;;8.10;5.23;;;17.00;99.90;;;;;;4173584;28;20242;-74
2021/06/15 05:45:25;;;;;;;9.10;5.10;;;17.10;99.90;;;;;;4170775;28;20255;-76
2021/06/15 05:47:29;;;;;;;7.57;5.30;;;17.10;99.90;;;;;;4169947;28;20263;-77
2021/06/15 05:49:31;;;;;;;8.83;4.87;;;17.20;99.90;;;;;;4177114;28;20224;-80
2021/06/15 05:51:33;;;;;;;9.37;5.37;;;17.20;99.90;;;;;;4178599;28;20209;-77
2021/06/15 05:53:36;;;;;;;7.63;5.00;;;17.20;99.90;;;;;;4168934;28;20213;-74
2021/06/15 05:55:38;;;;;;;8.47;5.10;;;17.30;99.90;;;;;;4178837;28;20201;-76
2021/06/15 05:57:40;;;;;;;6.27;4.20;;;17.40;99.90;;;;;;4177607;28;20203;-76
2021/06/15 05:59:42;;;;;;;7.13;4.83;;;17.40;99.90;;;;;;4174384;28;20246;-76
2021/06/15 06:01:43;;;;;;;8.40;4.90;;;17.40;99.90;;;;;;4162748;28;20664;-76
2021/06/15 06:03:47;;;;;;;9.30;5.27;;;17.50;99.90;;;;;;4170457;28;20202;-76
2021/06/15 06:08:09;;;;;;;8.97;4.70;;;17.60;99.90;;;;;;4166254;28;20244;-76
2021/06/15 06:10:13;;;;;;;8.27;4.77;;;17.60;99.90;;;;;;4175496;28;20210;-76
2021/06/15 06:12:14;;;;;;;8.10;4.83;;;17.70;99.90;;;;;;4178607;28;20207;-76
2021/06/15 06:14:16;;;;;;;8.53;5.00;;;17.80;99.90;;;;;;4178258;28;20203;-76
2021/06/15 06:16:18;;;;;;;8.27;5.00;;;17.80;99.90;;;;;;4174292;28;20294;-76
2021/06/15 06:18:20;;;;;;;9.93;5.10;;;17.90;99.90;;;;;;4171846;28;20222;-77
2021/06/15 06:20:21;;;;;;;9.03;4.67;;;18.00;99.90;;;;;;4175639;28;20248;-78
2021/06/15 06:22:23;;;;;;;9.07;4.80;;;18.00;99.90;;;;;;4166465;28;20211;-79
2021/06/15 06:24:25;;;;;;;13.27;8.17;;;18.10;99.90;;;;;;4179642;28;20660;-77
2021/06/15 06:26:28;;;;;;;250.97;141.40;;;18.20;99.90;;;;;;4176841;28;20211;-77
2021/06/15 06:28:30;;;;;;;109.63;62.67;;;18.20;99.90;;;;;;4176865;28;20260;-75
2021/06/15 06:30:32;;;;;;;51.43;30.20;;;18.30;99.90;;;;;;4146615;28;20214;-75
2021/06/15 06:32:34;;;;;;;30.00;17.30;;;18.40;99.90;;;;;;4166470;28;20210;-75
2021/06/15 06:34:35;;;;;;;15.03;9.60;;;18.40;99.90;;;;;;4167141;28;20213;-74
2021/06/15 06:36:37;;;;;;;12.10;6.90;;;18.50;99.90;;;;;;4173160;28;20294;-75
2021/06/15 06:38:39;;;;;;;11.07;6.73;;;18.60;99.90;;;;;;4172181;28;20260;-75
2021/06/15 06:40:41;;;;;;;12.13;5.93;;;18.60;99.90;;;;;;4170332;28;20226;-74
2021/06/15 06:42:44;;;;;;;7.23;5.10;;;18.60;99.90;;;;;;4171266;28;20721;-74
2021/06/15 06:44:46;;;;;;;6.93;5.13;;;18.70;99.90;;;;;;4161183;28;20212;-75
2021/06/15 06:46:48;;;;;;;8.40;4.93;;;18.80;99.90;;;;;;4155576;28;20219;-75
2021/06/15 06:48:49;;;;;;;9.27;5.30;;;18.90;99.90;;;;;;4167275;28;20750;-75
2021/06/15 06:50:51;;;;;;;7.40;4.73;;;18.90;99.90;;;;;;4169992;28;20597;-75
2021/06/15 06:52:53;;;;;;;9.53;4.30;;;19.00;99.90;;;;;;4171111;28;20214;-75
2021/06/15 06:54:54;;;;;;;10.33;5.37;;;19.10;99.90;;;;;;4171804;28;20668;-75
2021/06/15 06:56:56;;;;;;;7.67;4.93;;;19.10;99.90;;;;;;4171668;28;20238;-75
2021/06/15 06:58:59;;;;;;;9.67;5.00;;;19.20;99.90;;;;;;4171898;28;20261;-75
2021/06/15 07:01:01;;;;;;;7.07;4.67;;;19.30;99.90;;;;;;4167786;28;20229;-75
2021/06/15 07:03:03;;;;;;;8.43;4.70;;;19.30;99.90;;;;;;4172895;28;20211;-75
2021/06/15 07:05:06;;;;;;;9.13;4.93;;;19.40;99.90;;;;;;4168281;28;20216;-75
2021/06/15 07:07:09;;;;;;;9.93;5.10;;;19.40;99.90;;;;;;4159583;28;20217;-76
2021/06/15 07:09:10;;;;;;;11.63;6.50;;;19.50;99.90;;;;;;4172314;28;20294;-75
2021/06/15 07:11:12;;;;;;;46.50;24.33;;;19.50;99.90;;;;;;4174765;28;20643;-76
2021/06/15 07:13:14;;;;;;;120.47;72.57;;;19.60;99.90;;;;;;4174946;28;20215;-75
2021/06/15 07:15:18;;;;;;;81.70;49.23;;;19.70;99.90;;;;;;4171715;28;20258;-76
2021/06/15 07:17:20;;;;;;;46.43;29.70;;;19.70;99.90;;;;;;4163251;28;20217;-76
2021/06/15 07:19:21;;;;;;;24.77;15.27;;;19.80;99.90;;;;;;4161771;28;20609;-75
2021/06/15 07:21:23;;;;;;;16.23;10.43;;;19.90;99.90;;;;;;4170313;28;20677;-75
2021/06/15 07:23:25;;;;;;;12.63;8.20;;;19.90;99.90;;;;;;4167091;28;20258;-75
2021/06/15 07:25:26;;;;;;;9.90;6.87;;;20.00;99.90;;;;;;4173537;28;20214;-76
2021/06/15 07:27:28;;;;;;;10.33;5.97;;;20.00;99.90;;;;;;4177901;28;20893;-76
2021/06/15 07:29:30;;;;;;;9.07;5.57;;;20.10;99.90;;;;;;4174084;28;20301;-75
2021/06/15 07:31:34;;;;;;;7.63;5.20;;;20.10;99.90;;;;;;4173011;28;20729;-76
2021/06/15 07:33:36;;;;;;;8.70;5.33;;;20.20;99.90;;;;;;4175307;28;20755;-76
2021/06/15 07:35:38;;;;;;;9.83;5.20;;;20.30;99.90;;;;;;4163720;28;20279;-76
2021/06/15 07:37:40;;;;;;;8.83;5.47;;;20.30;99.90;;;;;;4164396;28;20218;-75
2021/06/15 07:39:42;;;;;;;10.00;5.27;;;20.40;99.90;;;;;;4165412;28;20207;-76
2021/06/15 07:41:43;;;;;;;8.30;5.20;;;20.50;99.90;;;;;;4169609;28;20235;-76
2021/06/15 07:43:45;;;;;;;7.73;5.13;;;20.60;99.90;;;;;;4175336;28;20537;-76
2021/06/15 07:45:47;;;;;;;6.67;4.87;;;20.60;99.90;;;;;;4171331;28;20283;-76
2021/06/15 07:47:50;;;;;;;8.77;5.03;;;20.70;99.90;;;;;;4160240;28;20289;-76
2021/06/15 07:49:53;;;;;;;8.60;4.90;;;20.80;99.70;;;;;;4174348;28;20287;-75
2021/06/15 07:51:54;;;;;;;8.80;5.13;;;21.00;99.30;;;;;;4171407;28;20217;-74
2021/06/15 07:53:59;;;;;;;9.63;5.00;;;21.10;99.00;;;;;;4164580;28;20760;-74
2021/06/15 07:56:00;;;;;;;7.83;5.17;;;21.20;98.80;;;;;;4165003;28;20217;-76
2021/06/15 07:58:02;;;;;;;6.93;5.07;;;21.20;98.60;;;;;;4167937;28;20266;-75
2021/06/15 08:00:06;;;;;;;7.53;4.70;;;21.40;98.40;;;;;;4172995;28;20659;-75
2021/06/15 08:02:08;;;;;;;8.47;5.07;;;21.50;98.00;;;;;;4167225;28;20218;-75
2021/06/15 08:04:14;;;;;;;7.03;5.00;;;21.60;97.60;;;;;;4170494;28;20248;-76
2021/06/15 08:06:15;;;;;;;9.07;5.47;;;21.70;97.40;;;;;;4165339;28;20210;-75
2021/06/15 08:08:17;;;;;;;9.30;5.47;;;21.70;97.20;;;;;;4174218;28;20234;-75
2021/06/15 08:10:20;;;;;;;8.27;4.63;;;21.90;97.00;;;;;;4166417;28;20211;-76
2021/06/15 08:12:21;;;;;;;9.97;5.40;;;21.90;96.90;;;;;;4168314;28;20225;-75
2021/06/15 08:14:23;;;;;;;9.20;5.53;;;22.00;96.60;;;;;;4173784;28;20673;-75
2021/06/15 08:16:25;;;;;;;9.60;5.17;;;22.10;96.50;;;;;;4172758;28;20280;-75
2021/06/15 08:18:27;;;;;;;9.63;5.47;;;22.20;96.40;;;;;;4165359;28;20282;-75
2021/06/15 08:20:30;;;;;;;7.57;5.33;;;22.20;96.10;;;;;;4174435;28;20260;-75
2021/06/15 08:22:32;;;;;;;8.37;5.20;;;22.30;95.90;;;;;;4174394;28;20571;-78
2021/06/15 08:24:34;;;;;;;28.47;16.63;;;22.40;95.60;;;;;;4175232;28;20211;-74
2021/06/15 08:26:35;;;;;;;44.37;25.43;;;22.40;95.70;;;;;;4173936;28;20637;-76
2021/06/15 08:28:37;;;;;;;22.27;13.40;;;22.40;95.60;;;;;;4174817;28;20761;-75
2021/06/15 08:30:40;;;;;;;15.20;8.63;;;22.40;95.60;;;;;;4173450;28;20512;-76
2021/06/15 08:32:43;;;;;;;9.60;6.63;;;22.40;95.40;;;;;;4166557;28;20213;-75
2021/06/15 08:34:45;;;;;;;11.57;7.07;;;22.50;95.40;;;;;;4173245;28;20215;-75
2021/06/15 08:36:48;;;;;;;8.50;5.90;;;22.50;95.20;;;;;;4174276;28;20215;-75
2021/06/15 08:38:50;;;;;;;8.60;6.10;;;22.60;95.30;;;;;;4174218;28;20621;-74
2021/06/15 08:40:53;;;;;;;9.33;6.13;;;22.70;95.10;;;;;;4175967;28;20559;-75
2021/06/15 08:42:55;;;;;;;9.80;5.80;;;22.80;95.00;;;;;;4161921;28;20637;-75
2021/06/15 08:44:57;;;;;;;9.70;6.20;;;22.90;94.80;;;;;;4173584;28;20212;-76
2021/06/15 08:46:59;;;;;;;8.93;5.77;;;23.10;94.50;;;;;;4169938;28;20222;-75
2021/06/15 08:49:02;;;;;;;10.77;6.20;;;23.10;94.30;;;;;;4166608;28;20345;-74
2021/06/15 08:51:04;;;;;;;10.33;5.63;;;23.10;93.70;;;;;;4165055;28;20214;-74
2021/06/15 08:53:08;;;;;;;7.43;5.53;;;23.20;93.10;;;;;;4171682;28;21579;-74
2021/06/15 08:55:10;;;;;;;7.63;5.73;;;23.30;93.10;;;;;;4168649;28;20216;-74
2021/06/15 08:57:18;;;;;;;8.77;5.43;;;23.40;92.60;;;;;;4173179;28;20450;-73
2021/06/15 08:59:22;;;;;;;9.43;5.23;;;23.50;91.90;;;;;;4174480;28;20246;-73
2021/06/15 09:01:23;;;;;;;11.37;6.73;;;23.50;91.80;;;;;;4172774;28;20214;-73
2021/06/15 09:03:25;;;;;;;10.23;6.00;;;23.60;91.70;;;;;;4167269;28;20349;-74
2021/06/15 09:05:27;;;;;;;9.50;5.37;;;23.60;91.50;;;;;;4160845;28;20285;-74
2021/06/15 09:08:01;;;;;;;9.23;5.73;;;23.70;91.50;;;;;;4170795;28;20217;-74
2021/06/15 09:10:06;;;;;;;8.30;5.40;;;23.80;91.50;;;;;;4186783;22;20584;-77
2021/06/15 09:12:09;;;;;;;9.20;5.70;;;23.90;91.50;;;;;;4183910;28;20220;-77
2021/06/15 09:14:11;;;;;;;11.27;6.03;;;23.90;91.40;;;;;;4182102;28;20583;-78
2021/06/15 09:16:22;;;;;;;9.90;6.40;;;24.00;91.40;;;;;;4172174;28;20214;-76
2021/06/15 09:18:28;;;;;;;11.23;6.43;;;24.00;91.50;;;;;;4173684;28;20263;-77
2021/06/15 09:20:32;;;;;;;50.70;26.17;;;24.10;91.40;;;;;;4168116;28;20210;-77
2021/06/15 09:22:34;;;;;;;73.60;49.37;;;24.10;91.30;;;;;;4171947;28;20218;-76
2021/06/15 09:24:46;;;;;;;46.00;30.77;;;24.20;91.30;;;;;;4173578;28;20205;-76
2021/06/15 09:27:03;;;;;;;29.37;18.93;;;24.30;91.00;;;;;;4172281;28;20217;-76
2021/06/15 09:29:04;;;;;;;20.07;12.03;;;24.40;90.30;;;;;;4167332;28;20246;-76
2021/06/15 09:31:09;;;;;;;16.03;9.80;;;24.50;90.10;;;;;;4167235;28;20206;-76
2021/06/15 09:33:11;;;;;;;11.77;8.00;;;24.60;89.20;;;;;;4177810;28;20680;-75
2021/06/15 09:35:15;;;;;;;10.03;6.43;;;24.70;87.60;;;;;;4171935;28;20632;-76
2021/06/15 09:37:18;;;;;;;9.93;6.70;;;24.80;87.70;;;;;;4168820;28;20214;-75
2021/06/15 09:39:20;;;;;;;10.10;6.43;;;25.00;87.00;;;;;;4169696;28;20268;-75
2021/06/15 09:41:35;;;;;;;15.73;7.60;;;25.00;86.00;;;;;;4160221;28;20206;-76
2021/06/15 09:43:38;;;;;;;12.27;6.97;;;25.10;86.70;;;;;;4168540;28;20207;-75
2021/06/15 09:45:42;;;;;;;11.27;7.17;;;25.20;87.00;;;;;;4177067;28;20554;-77
2021/06/15 09:47:43;;;;;;;11.43;6.80;;;25.40;86.60;;;;;;4174580;28;20264;-77
2021/06/15 09:49:46;;;;;;;9.50;6.63;;;25.50;86.80;;;;;;4176606;28;20257;-76
2021/06/15 09:52:07;;;;;;;11.57;6.83;;;25.60;85.50;;;;;;4170756;28;20206;-77
2021/06/15 09:54:09;;;;;;;12.20;6.30;;;25.60;83.60;;;;;;4174965;28;20233;-75
2021/06/15 09:56:13;;;;;;;9.57;6.13;;;25.80;83.10;;;;;;4174921;28;20222;-76
2021/06/15 09:58:16;;;;;;;10.03;6.27;;;25.80;81.90;;;;;;4178549;28;20263;-79
2021/06/15 10:00:21;;;;;;;14.20;6.70;;;26.00;82.50;;;;;;4188188;28;20626;-77
2021/06/15 10:02:23;;;;;;;9.10;6.33;;;26.10;81.40;;;;;;4188219;28;20283;-77
2021/06/15 10:04:27;;;;;;;9.17;6.40;;;26.20;81.80;;;;;;4179571;28;20214;-74
2021/06/15 10:06:34;;;;;;;7.77;6.00;;;26.20;81.30;;;;;;4185441;28;20218;-75
2021/06/15 10:08:44;;;;;;;11.67;6.50;;;26.30;79.60;;;;;;4178851;28;20235;-75
2021/06/15 10:10:47;;;;;;;9.30;6.27;;;26.40;79.50;;;;;;4187119;28;20209;-75
2021/06/15 10:12:50;;;;;;;10.10;6.53;;;26.40;79.30;;;;;;4175008;28;20574;-76
2021/06/15 10:14:55;;;;;;;10.37;6.10;;;26.40;79.60;;;;;;4177086;28;20205;-76
2021/06/15 10:17:00;;;;;;;10.07;6.00;;;26.50;79.70;;;;;;4176615;28;20241;-76
2021/06/15 10:19:02;;;;;;;10.60;6.63;;;26.50;77.30;;;;;;4183375;28;20229;-77
2021/06/15 10:21:04;;;;;;;10.77;6.13;;;26.40;78.20;;;;;;4175025;28;20260;-76
2021/06/15 10:23:07;;;;;;;12.07;6.90;;;26.50;78.60;;;;;;4174071;28;20214;-75
2021/06/15 10:25:10;;;;;;;9.50;6.60;;;26.60;79.00;;;;;;4174877;28;20214;-73
2021/06/15 10:27:13;;;;;;;9.03;6.50;;;26.70;78.70;;;;;;4176061;28;20590;-77
2021/06/15 10:29:16;;;;;;;11.03;6.83;;;26.80;78.50;;;;;;4182117;28;20717;-75
2021/06/15 10:31:26;;;;;;;12.67;7.13;;;26.90;76.60;;;;;;4189711;28;20247;-79
2021/06/15 10:33:42;;;;;;;10.63;6.87;;;26.90;75.70;;;;;;4174024;28;20632;-78
2021/06/15 10:35:47;;;;;;;11.10;6.50;;;27.00;73.60;;;;;;4169871;28;20210;-75
2021/06/15 10:37:49;;;;;;;8.03;5.80;;;27.10;72.70;;;;;;4174065;28;20242;-76
2021/06/15 10:39:51;;;;;;;8.20;5.70;;;27.20;71.60;;;;;;4182202;28;20688;-76
2021/06/15 10:42:11;;;;;;;9.33;6.10;;;27.30;69.40;;;;;;4170503;28;20279;-77
2021/06/15 10:44:14;;;;;;;10.67;6.07;;;27.40;70.00;;;;;;4174056;28;20237;-76